METAR

Je formát meteorologické informace, která je vydávána v pravidelných intervalech pro letiště nebo stále meteorologické stanice. METAR je zveřejňován zpravidla každých 30 minut a měl by reflektovat aktuální meteorologickou situaci. Zkratka je akronymem pro METeorological Actual Report.

Příklad informace METAR pro letiště Václava Havla (LKPR):

METAR LKPR 112200Z 19004KT 2000 BR SCT001 OVC002 03/02 Q1033 BECMG 1300 BR BKN001 RMK REG QNH 1030=

Dekódování zprávy:

Příklad nezahrnuje všechny informace, které může zpráva obsahovat. Všechny kódy a značky používané ve zprávách METAR lze najít na Wikipedii [CZ], případně detailněji v anglické verzi.

Líbí se vám článek? Podělte se o něj s ostatními
0

Simple Share Buttons